createdAt,value
2022-10-15T00:18:37.981Z,4.07
2022-10-15T00:21:09.601Z,4.57
2022-10-15T00:23:38.243Z,4.20
2022-10-15T00:26:09.003Z,4.80
2022-10-15T00:28:37.313Z,4.80
2022-10-15T00:31:07.640Z,4.63
2022-10-15T00:33:35.591Z,5.20
2022-10-15T00:36:05.995Z,5.22
2022-10-15T00:38:36.481Z,5.70
2022-10-15T00:41:06.356Z,4.68
2022-10-15T00:43:43.085Z,5.35
2022-10-15T00:46:19.728Z,5.22
2022-10-15T00:48:50.823Z,5.10
2022-10-15T00:51:20.628Z,5.55
2022-10-15T00:53:51.187Z,5.43
2022-10-15T00:56:22.524Z,5.25
2022-10-15T00:58:53.514Z,5.82
2022-10-15T01:01:21.758Z,5.32
2022-10-15T01:03:50.238Z,5.82
2022-10-15T01:06:18.673Z,6.07
2022-10-15T01:08:47.380Z,6.13
2022-10-15T01:11:31.691Z,6.10
2022-10-15T01:14:17.507Z,6.05
2022-10-15T01:16:50.673Z,6.30
2022-10-15T01:19:30.739Z,6.45
2022-10-15T01:22:06.075Z,5.82
2022-10-15T02:51:11.609Z,7.20
2022-10-15T02:53:39.752Z,8.50
2022-10-15T02:56:08.029Z,8.60
2022-10-15T02:58:36.209Z,8.27
2022-10-15T03:01:05.164Z,7.93
2022-10-15T03:03:33.047Z,8.32
2022-10-15T03:06:01.251Z,8.05
2022-10-15T03:08:30.774Z,9.05
2022-10-15T03:11:01.450Z,8.38
2022-10-15T03:13:30.332Z,9.45
2022-10-15T03:16:01.588Z,8.52
2022-10-15T03:18:29.674Z,8.65
2022-10-15T03:20:58.226Z,9.38
2022-10-15T03:23:26.971Z,10.20
2022-10-15T04:57:09.274Z,5.65
2022-10-15T04:59:40.185Z,5.78
2022-10-15T05:02:34.648Z,6.43
2022-10-15T05:05:26.486Z,5.47
2022-10-15T05:08:01.221Z,5.38
2022-10-15T05:10:30.642Z,6.40
2022-10-15T05:13:04.470Z,4.63
2022-10-15T05:15:35.364Z,5.30
2022-10-15T05:18:07.291Z,5.32
2022-10-15T05:20:44.662Z,5.25
2022-10-15T05:23:16.569Z,4.88
2022-10-15T05:25:55.551Z,5.63
2022-10-15T05:28:28.044Z,5.82
2022-10-15T05:46:11.858Z,6.07
2022-10-15T05:48:40.055Z,5.65
2022-10-15T05:51:11.610Z,5.70
2022-10-15T05:53:40.583Z,5.57
2022-10-15T05:56:09.558Z,5.63
2022-10-15T05:58:38.047Z,5.90
2022-10-15T06:01:08.544Z,5.88
2022-10-15T06:03:41.540Z,6.53
2022-10-15T06:06:15.778Z,6.25
2022-10-15T06:08:43.639Z,6.05
2022-10-15T06:11:11.658Z,6.47
2022-10-15T06:13:40.628Z,6.25
2022-10-15T06:16:09.035Z,6.30
2022-10-15T06:18:38.514Z,7.15
2022-10-15T06:21:08.903Z,7.18
2022-10-15T06:23:37.214Z,7.18
2022-10-15T06:26:06.557Z,7.57
2022-10-15T06:28:34.867Z,7.60
2022-10-15T06:31:03.310Z,8.27
2022-10-15T06:33:31.601Z,7.13
2022-10-15T06:36:02.874Z,7.88
2022-10-15T06:38:32.382Z,7.18
2022-10-15T06:41:00.960Z,6.63
2022-10-15T06:43:31.073Z,7.15
2022-10-15T06:46:01.221Z,6.25
2022-10-15T06:48:29.235Z,6.82
2022-10-15T06:50:59.207Z,7.50
2022-10-15T06:53:27.146Z,6.90
2022-10-15T06:55:59.217Z,6.50
2022-10-15T06:58:27.212Z,6.60
2022-10-15T07:01:00.377Z,6.43
2022-10-15T07:03:28.276Z,6.10
2022-10-15T07:05:56.116Z,5.35
2022-10-15T07:08:26.167Z,5.80
2022-10-15T07:10:54.021Z,5.53
2022-10-15T07:13:25.800Z,6.10
2022-10-15T07:15:56.002Z,5.43
2022-10-15T07:18:24.074Z,5.40
2022-10-15T07:20:51.994Z,5.38
2022-10-15T07:23:22.925Z,5.32
2022-10-15T07:25:53.340Z,5.18
2022-10-15T07:28:21.340Z,6.05
2022-10-15T07:30:50.441Z,5.63
2022-10-15T07:33:18.709Z,5.72
2022-10-15T07:35:59.948Z,5.18
2022-10-15T07:38:27.837Z,6.00
2022-10-15T07:40:59.054Z,6.10
2022-10-15T07:43:28.154Z,6.20
2022-10-15T07:45:57.290Z,7.55
2022-10-15T07:48:25.775Z,7.50
2022-10-15T07:50:56.861Z,6.85
2022-10-15T07:53:24.712Z,6.45
2022-10-15T07:55:59.888Z,5.85
2022-10-15T07:58:31.387Z,5.00
2022-10-15T08:01:02.379Z,5.47
2022-10-15T08:03:30.680Z,5.25
2022-10-15T08:06:00.918Z,5.13
2022-10-15T08:08:29.403Z,4.22
2022-10-15T08:10:57.648Z,4.07
2022-10-15T08:13:25.531Z,4.10
2022-10-15T08:15:59.248Z,3.85
2022-10-15T08:18:29.420Z,3.72
2022-10-15T08:21:00.821Z,3.40
2022-10-15T08:23:29.504Z,3.45
2022-10-15T08:25:58.946Z,2.63
2022-10-15T08:28:26.747Z,2.65
2022-10-15T08:30:55.640Z,2.55
2022-10-15T08:33:23.369Z,2.30
2022-10-15T08:35:53.410Z,2.25
2022-10-15T08:38:21.325Z,2.25
2022-10-15T08:40:50.319Z,2.33
2022-10-15T08:43:24.083Z,2.10
2022-10-15T08:45:55.188Z,2.28
2022-10-15T08:48:30.663Z,2.08
2022-10-15T08:51:04.982Z,2.00
2022-10-15T08:53:39.478Z,2.03
2022-10-15T08:56:16.217Z,2.33
2022-10-15T08:58:50.047Z,1.98
2022-10-15T09:01:22.699Z,2.15
2022-10-15T09:04:02.384Z,1.90
2022-10-15T09:06:35.730Z,2.30
2022-10-15T09:09:13.431Z,2.00
2022-10-15T09:11:50.763Z,2.47
2022-10-15T09:14:23.382Z,2.72
2022-10-15T09:16:54.675Z,1.90
2022-10-15T09:19:24.984Z,2.08
2022-10-15T09:21:54.141Z,2.00
2022-10-15T09:24:23.448Z,2.35
2022-10-15T09:27:07.027Z,1.73
2022-10-15T09:29:40.701Z,2.10
2022-10-15T09:32:17.767Z,1.80
2022-10-15T09:34:52.426Z,1.50
2022-10-15T09:37:30.953Z,1.70
2022-10-15T09:40:12.982Z,1.80
2022-10-15T09:42:43.823Z,1.60
2022-10-15T09:45:16.368Z,1.95
2022-10-15T09:47:45.349Z,1.70
2022-10-15T09:50:15.054Z,1.67
2022-10-15T09:53:03.301Z,1.55
2022-10-15T09:55:42.056Z,1.60
2022-10-15T09:58:15.549Z,1.50
2022-10-15T10:03:27.825Z,1.10
2022-10-15T10:06:02.758Z,1.10
2022-10-15T10:08:42.543Z,1.33
2022-10-15T10:11:12.819Z,1.30
2022-10-15T10:13:46.814Z,1.38
2022-10-15T10:16:16.102Z,1.20
2022-10-15T10:18:50.448Z,1.27
2022-10-15T10:21:27.499Z,1.10
2022-10-15T10:23:57.853Z,1.23
2022-10-15T10:26:25.789Z,1.30
2022-10-15T10:29:04.864Z,1.17
2022-10-15T10:31:44.942Z,1.52
2022-10-15T10:34:29.845Z,2.13
2022-10-15T10:37:04.581Z,1.80
2022-10-15T10:39:36.508Z,1.98
2022-10-15T10:42:06.555Z,2.70
2022-10-15T10:44:39.874Z,2.28
2022-10-15T10:47:13.946Z,2.80
2022-10-15T10:49:43.655Z,2.50
2022-10-15T10:52:27.144Z,3.33
2022-10-15T10:55:01.604Z,3.60
2022-10-15T10:57:42.766Z,3.75
2022-10-15T11:00:15.693Z,3.90
2022-10-15T11:02:48.587Z,3.50
2022-10-15T11:05:21.203Z,3.15
2022-10-15T11:07:55.219Z,3.50
2022-10-15T11:10:30.588Z,3.40
2022-10-15T11:15:55.500Z,2.50
2022-10-15T11:18:38.357Z,2.28
2022-10-15T11:21:18.659Z,1.93
2022-10-15T11:24:16.009Z,2.00
2022-10-15T11:27:10.070Z,1.73
2022-10-15T11:29:52.683Z,1.50
2022-10-15T11:32:48.284Z,1.83
2022-10-15T11:35:52.424Z,1.88
2022-10-15T11:38:31.121Z,1.88
2022-10-15T11:41:17.827Z,1.83
2022-10-15T11:44:05.335Z,1.98
2022-10-15T11:46:42.839Z,2.10
2022-10-15T11:49:28.503Z,1.90
2022-10-15T11:52:14.663Z,2.33
2022-10-15T11:54:46.445Z,1.80
2022-10-15T11:57:17.180Z,1.70
2022-10-15T11:59:52.514Z,2.20
2022-10-15T12:02:25.675Z,1.52
2022-10-15T12:04:57.127Z,1.67
2022-10-15T12:07:29.279Z,1.40
2022-10-15T12:10:04.441Z,1.60
2022-10-15T12:12:41.883Z,1.45
2022-10-15T12:15:25.364Z,1.20
2022-10-15T12:18:01.318Z,1.55
2022-10-15T12:20:29.523Z,1.40
2022-10-15T12:23:00.219Z,1.27
2022-10-15T12:25:44.275Z,0.90
2022-10-15T12:28:19.285Z,1.13
2022-10-15T12:31:00.789Z,0.90
2022-10-15T12:33:36.796Z,1.17
2022-10-15T12:36:09.964Z,0.90
2022-10-15T12:38:40.983Z,1.17
2022-10-15T12:41:10.656Z,1.33
2022-10-15T12:43:42.483Z,0.80
2022-10-15T12:46:13.239Z,1.25
2022-10-15T12:48:43.768Z,1.30
2022-10-15T12:51:39.378Z,1.13
2022-10-15T12:54:39.747Z,1.00
2022-10-15T12:57:46.912Z,1.38
2022-10-15T13:00:42.511Z,1.05
2022-10-15T13:03:24.572Z,1.00
2022-10-15T13:05:55.247Z,1.05
2022-10-15T13:08:38.163Z,1.15
2022-10-15T13:11:06.096Z,1.15
2022-10-15T13:13:35.451Z,1.02
2022-10-15T13:16:09.332Z,1.10
2022-10-15T13:18:39.599Z,1.10
2022-10-15T13:21:09.920Z,0.93
2022-10-15T13:23:47.190Z,1.00
2022-10-15T13:26:20.541Z,1.10
2022-10-15T13:31:24.761Z,0.85
2022-10-15T13:34:02.191Z,0.85
2022-10-15T13:36:33.201Z,1.17
2022-10-15T13:39:04.370Z,0.82
2022-10-15T13:41:37.185Z,1.20
2022-10-15T13:44:07.574Z,1.20
2022-10-15T13:46:39.139Z,0.90
2022-10-15T13:49:14.421Z,0.70
2022-10-15T13:51:45.788Z,0.60
2022-10-15T13:54:18.378Z,0.60
2022-10-15T13:56:54.228Z,0.50
2022-10-15T13:59:23.454Z,0.70
2022-10-15T14:01:55.908Z,0.50
2022-10-15T14:04:25.292Z,0.70
2022-10-15T14:06:57.194Z,0.50
2022-10-15T14:09:30.553Z,0.68
2022-10-15T14:12:02.365Z,0.88
2022-10-15T14:14:35.506Z,0.47
2022-10-15T14:17:06.234Z,0.60
2022-10-15T14:19:38.262Z,0.50
2022-10-15T14:22:07.128Z,0.63
2022-10-15T14:24:39.270Z,0.30
2022-10-15T14:27:13.933Z,0.60
2022-10-15T14:29:45.125Z,0.50
2022-10-15T14:32:26.563Z,1.33
2022-10-15T14:34:57.392Z,1.50
2022-10-15T14:37:30.764Z,1.60
2022-10-15T14:42:33.515Z,1.33
2022-10-15T14:45:12.419Z,0.68
2022-10-15T14:47:41.945Z,2.08
2022-10-15T14:50:13.031Z,1.10
2022-10-15T14:52:45.364Z,0.60
2022-10-15T14:55:20.348Z,0.70
2022-10-15T14:57:49.944Z,0.73
2022-10-15T15:00:25.650Z,0.73
2022-10-15T15:02:55.391Z,0.75
2022-10-15T15:05:26.665Z,0.75
2022-10-15T15:07:56.883Z,0.50
2022-10-15T15:10:25.631Z,0.80
2022-10-15T15:12:55.418Z,0.50
2022-10-15T15:15:25.546Z,0.43
2022-10-15T15:17:53.257Z,0.70
2022-10-15T15:20:22.332Z,0.40
2022-10-15T15:22:53.759Z,0.60
2022-10-15T15:25:28.104Z,0.50
2022-10-15T15:27:55.897Z,0.60
2022-10-15T15:30:25.801Z,1.83
2022-10-15T15:32:53.603Z,0.85
2022-10-15T15:35:26.740Z,0.60
2022-10-15T15:37:55.912Z,0.70
2022-10-15T15:40:23.706Z,0.65
2022-10-15T15:42:52.038Z,0.90
2022-10-15T15:45:22.662Z,0.63
2022-10-15T15:47:50.923Z,0.77
2022-10-15T15:50:20.594Z,0.90
2022-10-15T15:52:48.894Z,0.65
2022-10-15T15:55:18.342Z,0.90
2022-10-15T15:57:47.653Z,0.90
2022-10-15T16:00:16.053Z,0.98
2022-10-15T16:02:44.167Z,0.80
2022-10-15T16:05:14.700Z,0.93
2022-10-15T16:07:43.265Z,0.90
2022-10-15T16:10:12.574Z,0.90
2022-10-15T16:12:42.808Z,1.00
2022-10-15T16:15:14.585Z,1.10
2022-10-15T16:17:43.405Z,1.13
2022-10-15T16:20:12.775Z,1.02
2022-10-15T16:22:40.687Z,1.25
2022-10-15T16:25:10.038Z,1.17
2022-10-15T16:27:37.863Z,1.30
2022-10-15T16:30:08.346Z,1.17
2022-10-15T16:32:36.162Z,1.17
2022-10-15T16:35:04.499Z,1.60
2022-10-15T16:37:32.291Z,1.67
2022-10-15T16:40:00.174Z,1.30
2022-10-15T16:42:28.160Z,1.25
2022-10-15T16:44:56.246Z,1.20
2022-10-15T16:47:25.688Z,1.08
2022-10-15T16:49:55.566Z,1.48
2022-10-15T16:52:23.556Z,1.58
2022-10-15T16:54:51.854Z,1.40
2022-10-15T16:57:19.814Z,1.00
2022-10-15T16:59:47.798Z,1.27
2022-10-15T17:02:15.691Z,1.40
2022-10-15T17:04:45.032Z,1.52
2022-10-15T17:07:12.828Z,1.77
2022-10-15T17:09:41.064Z,1.23
2022-10-15T17:12:08.965Z,1.38
2022-10-15T17:14:36.943Z,1.40
2022-10-15T17:17:05.058Z,1.27
2022-10-15T17:19:34.257Z,1.70
2022-10-15T17:22:03.633Z,1.60
2022-10-15T17:24:31.456Z,1.20
2022-10-15T17:26:59.377Z,1.60
2022-10-15T17:29:30.741Z,1.63
2022-10-15T17:32:01.950Z,1.70
2022-10-15T17:34:29.854Z,1.45
2022-10-15T17:36:58.114Z,1.45
2022-10-15T17:39:27.437Z,1.50
2022-10-15T17:41:55.906Z,1.50
2022-10-15T17:44:23.784Z,1.50
2022-10-15T17:46:52.931Z,1.70
2022-10-15T17:49:27.287Z,1.10
2022-10-15T17:51:55.641Z,1.45
2022-10-15T17:54:23.734Z,1.42
2022-10-15T17:56:53.165Z,1.60
2022-10-15T17:59:21.456Z,1.73
2022-10-15T18:01:58.915Z,1.48
2022-10-15T18:04:29.062Z,2.05
2022-10-15T18:06:57.267Z,1.65
2022-10-15T18:09:26.130Z,1.65
2022-10-15T18:11:58.274Z,1.77
2022-10-15T18:14:33.048Z,1.67
2022-10-15T18:17:00.941Z,1.70
2022-10-15T18:19:28.945Z,1.40
2022-10-15T18:21:56.710Z,1.50
2022-10-15T18:24:25.543Z,1.30
2022-10-15T18:26:54.224Z,1.42
2022-10-15T18:29:25.527Z,1.50
2022-10-15T18:31:57.662Z,1.50
2022-10-15T18:36:56.355Z,1.58
2022-10-15T18:39:24.772Z,1.80
2022-10-15T18:41:52.693Z,2.20
2022-10-15T18:44:21.613Z,1.42
2022-10-15T18:46:52.017Z,1.40
2022-10-15T18:49:20.787Z,1.83
2022-10-15T18:51:52.820Z,1.67
2022-10-15T18:54:21.459Z,1.70
2022-10-15T18:56:49.418Z,1.63
2022-10-15T18:59:20.102Z,1.40
2022-10-15T19:01:51.122Z,1.80
2022-10-15T19:04:20.658Z,1.58
2022-10-15T19:06:50.956Z,2.28
2022-10-15T19:09:21.811Z,2.88
2022-10-15T19:11:51.730Z,1.75
2022-10-15T19:14:19.578Z,2.00
2022-10-15T19:16:48.729Z,1.60
2022-10-15T19:19:19.950Z,1.90
2022-10-15T19:21:50.037Z,1.50
2022-10-15T19:24:19.655Z,1.95
2022-10-15T19:26:49.462Z,2.13
2022-10-15T19:29:18.572Z,1.70
2022-10-15T19:31:49.973Z,1.70
2022-10-15T19:34:19.580Z,1.75
2022-10-15T19:36:50.781Z,2.20
2022-10-15T19:39:20.875Z,2.17
2022-10-15T19:41:49.377Z,2.13
2022-10-15T19:44:24.774Z,2.20
2022-10-15T19:46:53.755Z,2.10
2022-10-15T19:49:23.421Z,2.10
2022-10-15T19:51:52.107Z,2.17
2022-10-15T19:54:19.924Z,2.60
2022-10-15T19:56:47.790Z,2.40
2022-10-15T19:59:21.811Z,2.47
2022-10-15T20:01:50.931Z,2.25
2022-10-15T20:04:20.749Z,2.10
2022-10-15T20:06:52.636Z,1.70
2022-10-15T20:09:21.117Z,2.20
2022-10-15T20:11:50.752Z,2.05
2022-10-15T20:14:18.716Z,1.92
2022-10-15T20:16:46.831Z,2.22
2022-10-15T20:19:15.857Z,2.60
2022-10-15T20:21:43.722Z,2.17
2022-10-15T20:24:13.036Z,2.03
2022-10-15T20:58:23.748Z,1.85
2022-10-15T21:00:51.618Z,1.67
2022-10-15T21:03:19.614Z,1.95
2022-10-15T21:05:47.619Z,1.95
2022-10-15T21:08:16.345Z,2.03
2022-10-15T21:10:44.187Z,1.70
2022-10-15T21:22:01.134Z,2.60
2022-10-15T21:24:30.014Z,1.40
2022-10-15T21:44:37.672Z,1.67
2022-10-15T21:47:05.625Z,1.90
2022-10-15T21:49:33.725Z,2.05
2022-10-15T21:52:01.884Z,2.20
2022-10-15T21:54:29.895Z,2.03
2022-10-15T21:56:58.096Z,2.08
